Bloom City, Wisconsin
Current Conditions -  °F | °C
As of 3:55 PM on Wednesday 28 Jan 2015 (Local Time) from KC35 Reporting Station
Clear Clear  
Wind Chill: -4°   Ceiling: Unl
Heat Index:   Visibility: 10mi
Dew Point: -5°   Wind: 9mph
Humidity: 67%   Direction: 130°SE
Pressure: 29.9"   Gusts: 16mph
Location:  43.6121°N, 90.3998°W
Report Text: KC35 282155Z AUTO 13008G14KT 10SM CLR 00/M05 A2990 RMK AO2 T00001054
Loading
Personal Weather Stations






























Interactive Weather Map New forecast layout! Learn more

10-Day Weather Forecast

Advertisements
Track Severe Weather on mobile